Time;durP1;ratioP1;P1;durP2;ratioP2;P2;SDS_P1;SDS_P2;PMS_P1;PMS_P2;Temp;Humidity;BMP_temperature;BMP_pressure;BME280_temperature;BME280_humidity;BME280_pressure;Samples;Min_cycle;Max_cycle;Signal;HPM_P1;HPM_P2
2021/01/03 00:01:15;;;;;;;1.93;1.87;;;;;;;1.75;89.11;102496.88;6317840;28;20571;-77
2021/01/03 00:04:34;;;;;;;1.40;1.40;;;;;;;1.71;89.34;102506.19;6310141;28;20508;-75
2021/01/03 00:07:40;;;;;;;1.70;1.70;;;;;;;1.71;89.68;102514.28;6307973;28;20197;-76
2021/01/03 00:10:43;;;;;;;1.70;1.60;;;;;;;1.74;89.74;102517.59;6308137;28;20206;-76
2021/01/03 00:13:47;;;;;;;1.80;1.80;;;;;;;1.93;88.64;102519.69;6308994;28;20202;-76
2021/01/03 00:16:54;;;;;;;1.83;1.77;;;;;;;1.88;89.45;102520.03;6309768;28;20206;-76
2021/01/03 00:19:57;;;;;;;1.90;1.90;;;;;;;2.06;88.57;102533.88;6309680;28;20218;-75
2021/01/03 00:23:01;;;;;;;1.70;1.70;;;;;;;1.88;88.96;102536.19;6310278;28;20370;-75
2021/01/03 00:26:06;;;;;;;1.70;1.70;;;;;;;1.83;89.14;102541.09;6305945;28;20251;-76
2021/01/03 00:29:13;;;;;;;1.70;1.70;;;;;;;1.74;89.82;102543.63;6309692;28;20211;-74
2021/01/03 00:32:19;;;;;;;1.70;1.70;;;;;;;1.80;89.38;102540.44;6309789;28;20203;-75
2021/01/03 00:35:26;;;;;;;2.53;2.10;;;;;;;1.83;89.22;102542.91;6309158;28;20230;-76
2021/01/03 00:38:34;;;;;;;2.07;2.00;;;;;;;1.81;89.37;102542.19;6307134;28;20239;-74
2021/01/03 00:41:38;;;;;;;1.80;1.80;;;;;;;1.61;89.87;102551.81;6298221;28;20276;-75
2021/01/03 00:44:41;;;;;;;1.70;1.70;;;;;;;1.70;89.99;102552.91;6304909;28;20199;-75
2021/01/03 00:47:44;;;;;;;1.80;1.80;;;;;;;1.75;89.59;102553.41;6307626;28;20216;-75
2021/01/03 00:50:48;;;;;;;1.80;1.80;;;;;;;1.47;90.66;102545.75;6302838;28;20602;-76
2021/01/03 00:53:53;;;;;;;1.87;1.83;;;;;;;1.62;89.49;102558.00;6304808;28;20677;-76
2021/01/03 00:56:57;;;;;;;1.90;1.90;;;;;;;1.55;90.50;102563.03;6322798;28;20317;-76
2021/01/03 01:00:00;;;;;;;2.90;1.77;;;;;;;1.82;89.47;102574.34;6314810;28;20199;-74
2021/01/03 01:03:14;;;;;;;1.63;1.63;;;;;;;1.83;89.48;102580.59;6310570;28;20192;-75
2021/01/03 01:06:19;;;;;;;1.40;1.40;;;;;;;1.50;89.12;102567.03;6332237;28;20672;-75
2021/01/03 01:09:23;;;;;;;1.37;1.37;;;;;;;1.62;88.86;102584.91;6315652;28;20335;-76
2021/01/03 01:12:27;;;;;;;1.40;1.40;;;;;;;1.53;89.30;102573.03;6315089;28;20198;-75
2021/01/03 01:15:32;;;;;;;1.50;1.50;;;;;;;1.40;89.36;102560.63;6312985;28;20199;-76
2021/01/03 01:18:38;;;;;;;1.70;1.60;;;;;;;1.53;89.82;102589.19;6307301;28;20184;-76
2021/01/03 01:21:43;;;;;;;1.33;1.33;;;;;;;1.62;89.66;102593.00;6314762;28;20218;-74
2021/01/03 01:24:47;;;;;;;1.53;1.53;;;;;;;1.61;89.43;102591.28;6305480;28;20203;-75
2021/01/03 01:27:50;;;;;;;1.50;1.50;;;;;;;1.65;88.40;102598.13;6316000;28;20199;-75
2021/01/03 01:30:54;;;;;;;1.33;1.33;;;;;;;1.56;88.39;102604.25;6320581;28;20383;-75
2021/01/03 01:33:57;;;;;;;1.50;1.50;;;;;;;1.47;88.04;102595.03;6316848;28;20227;-75
2021/01/03 01:37:01;;;;;;;1.47;1.47;;;;;;;1.54;88.52;102600.81;6316897;28;20235;-75
2021/01/03 01:40:10;;;;;;;1.80;1.13;;;;;;;1.49;88.85;102608.38;6315765;28;20277;-75
2021/01/03 01:43:19;;;;;;;1.60;1.60;;;;;;;1.46;89.16;102603.22;6315350;28;20686;-75
2021/01/03 01:46:30;;;;;;;1.40;1.30;;;;;;;1.67;88.24;102609.69;6317368;28;20203;-75
2021/01/03 01:49:40;;;;;;;1.40;1.40;;;;;;;1.71;87.72;102608.44;6314785;28;20337;-76
2021/01/03 01:52:47;;;;;;;1.50;1.50;;;;;;;1.65;88.58;102603.53;6316802;28;20218;-75
2021/01/03 01:55:58;;;;;;;1.60;1.50;;;;;;;1.55;88.80;102602.50;6316949;28;20690;-75
2021/01/03 01:59:09;;;;;;;1.60;1.60;;;;;;;1.79;89.07;102606.03;6315684;28;20331;-75
2021/01/03 02:02:18;;;;;;;1.40;1.40;;;;;;;1.71;87.97;102598.56;6317363;28;20213;-75
2021/01/03 02:05:26;;;;;;;1.60;1.60;;;;;;;1.67;89.00;102606.97;6312720;28;20230;-75
2021/01/03 02:08:37;;;;;;;1.80;1.40;;;;;;;1.79;88.63;102608.72;6316569;28;20191;-76
2021/01/03 02:11:41;;;;;;;1.70;1.60;;;;;;;1.85;87.82;102616.31;6326919;28;20207;-75
2021/01/03 02:14:44;;;;;;;1.43;1.43;;;;;;;1.82;88.98;102606.63;6316893;28;20205;-75
2021/01/03 02:17:48;;;;;;;1.47;1.47;;;;;;;1.89;88.12;102612.44;6314061;28;20274;-75
2021/01/03 02:21:12;;;;;;;1.40;1.40;;;;;;;1.85;88.72;102610.94;6316644;28;20237;-75
2021/01/03 02:24:23;;;;;;;1.40;1.40;;;;;;;1.74;89.05;102608.22;6321771;28;20199;-76
2021/01/03 02:27:34;;;;;;;1.50;1.50;;;;;;;1.85;88.16;102616.31;6314104;28;20275;-75
2021/01/03 02:30:40;;;;;;;1.60;1.50;;;;;;;1.82;88.09;102619.25;6306643;28;20199;-75
2021/01/03 02:33:47;;;;;;;1.67;1.67;;;;;;;1.76;88.21;102617.03;6314490;28;20621;-75
2021/01/03 02:36:57;;;;;;;1.30;1.30;;;;;;;1.81;88.28;102614.84;6314528;28;20210;-75
2021/01/03 02:40:04;;;;;;;1.50;1.50;;;;;;;1.86;87.06;102626.13;6322205;28;20195;-75
2021/01/03 02:43:17;;;;;;;1.40;1.40;;;;;;;2.09;86.76;102630.59;6320421;28;20751;-75
2021/01/03 02:46:21;;;;;;;1.40;1.40;;;;;;;2.03;86.03;102631.06;6319387;28;20225;-75
2021/01/03 02:49:25;;;;;;;1.13;1.13;;;;;;;1.92;84.96;102633.72;6316196;28;20328;-75
2021/01/03 02:52:32;;;;;;;1.40;1.40;;;;;;;1.67;85.55;102633.88;6319666;28;20249;-75
2021/01/03 02:55:35;;;;;;;1.23;1.23;;;;;;;1.69;85.12;102631.94;6318763;28;20362;-75
2021/01/03 02:58:40;;;;;;;1.50;1.50;;;;;;;1.71;85.43;102651.50;6325330;28;20562;-75
2021/01/03 03:01:44;;;;;;;1.60;1.60;;;;;;;1.81;85.44;102655.22;6314575;28;20245;-75
2021/01/03 03:04:48;;;;;;;1.20;1.20;;;;;;;1.60;84.38;102654.13;6316122;28;20276;-75
2021/01/03 03:07:52;;;;;;;1.37;1.33;;;;;;;1.68;83.75;102657.13;6315812;28;20347;-75
2021/01/03 03:10:55;;;;;;;1.40;1.30;;;;;;;1.58;83.81;102651.56;6314069;28;20205;-75
2021/01/03 03:13:59;;;;;;;1.10;1.10;;;;;;;1.59;84.17;102665.88;6312184;28;20188;-75
2021/01/03 03:17:06;;;;;;;1.30;1.30;;;;;;;1.58;84.00;102661.47;6327537;28;20198;-74
2021/01/03 03:20:13;;;;;;;1.20;1.20;;;;;;;1.31;82.63;102604.38;6308030;28;20195;-76
2021/01/03 03:23:20;;;;;;;1.20;1.20;;;;;;;1.79;83.04;102659.88;6316939;28;20293;-76
2021/01/03 03:26:24;;;;;;;1.20;1.20;;;;;;;1.77;83.30;102651.06;6313052;28;20272;-75
2021/01/03 03:29:29;;;;;;;1.20;1.20;;;;;;;1.70;82.42;102639.88;6313733;28;20193;-76
2021/01/03 03:32:32;;;;;;;1.50;1.50;;;;;;;1.79;83.20;102657.16;6314187;28;20210;-76
2021/01/03 03:35:37;;;;;;;1.30;1.30;;;;;;;1.67;83.75;102667.00;6314055;28;20295;-76
2021/01/03 03:38:46;;;;;;;1.23;1.23;;;;;;;1.77;82.30;102667.19;6312822;28;20289;-76
2021/01/03 03:41:53;;;;;;;1.30;1.27;;;;;;;1.75;83.31;102670.00;6308773;28;20215;-76
2021/01/03 03:44:58;;;;;;;1.57;1.47;;;;;;;1.76;82.33;102676.25;6316859;28;20183;-76
2021/01/03 03:48:01;;;;;;;1.60;1.50;;;;;;;1.67;82.87;102666.19;6315456;28;20567;-76
2021/01/03 03:51:05;;;;;;;1.43;1.43;;;;;;;1.65;83.31;102668.09;6301722;28;20218;-76
2021/01/03 03:54:08;;;;;;;1.30;1.30;;;;;;;1.62;83.22;102679.94;6305742;28;20288;-75
2021/01/03 03:57:13;;;;;;;1.60;1.60;;;;;;;1.65;83.41;102692.31;6312507;28;20681;-75
2021/01/03 04:00:20;;;;;;;1.37;1.37;;;;;;;1.41;82.84;102659.19;6307147;28;20206;-76
2021/01/03 04:03:40;;;;;;;1.70;1.60;;;;;;;1.67;82.35;102682.31;6313878;28;20575;-76
2021/01/03 04:06:44;;;;;;;1.50;1.50;;;;;;;1.53;82.02;102669.03;6313510;28;20238;-75
2021/01/03 04:09:47;;;;;;;1.50;1.50;;;;;;;1.68;82.58;102697.47;6311993;28;20206;-75
2021/01/03 04:12:51;;;;;;;1.43;1.43;;;;;;;1.69;83.15;102700.06;6330400;28;20437;-75
2021/01/03 04:15:55;;;;;;;1.60;1.60;;;;;;;1.65;82.89;102684.25;6303680;28;20198;-75
2021/01/03 04:18:58;;;;;;;1.80;1.80;;;;;;;1.81;82.61;102690.19;6311175;28;20191;-75
2021/01/03 04:22:05;;;;;;;7.40;1.60;;;;;;;1.59;81.74;102679.34;6312694;28;20239;-75
2021/01/03 04:25:13;;;;;;;1.60;1.60;;;;;;;1.58;82.08;102693.75;6303734;28;20234;-75
2021/01/03 04:28:20;;;;;;;1.63;1.63;;;;;;;1.79;81.72;102702.94;6332271;28;20287;-75
2021/01/03 04:31:24;;;;;;;1.60;1.60;;;;;;;1.71;81.13;102699.94;6312389;28;20625;-75
2021/01/03 04:34:28;;;;;;;1.50;1.50;;;;;;;1.78;81.47;102696.69;6311805;28;20186;-75
2021/01/03 04:37:32;;;;;;;1.70;1.70;;;;;;;1.86;81.74;102704.16;6304327;28;20215;-75
2021/01/03 04:40:35;;;;;;;1.30;1.30;;;;;;;1.79;81.01;102708.31;6310811;28;20198;-75
2021/01/03 04:43:39;;;;;;;1.50;1.50;;;;;;;1.87;81.41;102706.75;6317718;28;20226;-75
2021/01/03 04:46:44;;;;;;;1.50;1.50;;;;;;;1.93;81.14;102716.19;6313771;28;20217;-75
2021/01/03 04:49:57;;;;;;;1.47;1.47;;;;;;;1.83;80.62;102709.78;6320495;28;20528;-75
2021/01/03 04:53:07;;;;;;;1.60;1.50;;;;;;;1.84;81.04;102717.75;6313184;28;20209;-74
2021/01/03 04:56:17;;;;;;;1.53;1.53;;;;;;;1.95;82.07;102708.00;6313563;28;20191;-74
2021/01/03 04:59:36;;;;;;;1.63;1.63;;;;;;;1.90;81.10;102705.66;6311028;28;20195;-76
2021/01/03 05:03:07;;;;;;;1.60;1.60;;;;;;;1.66;82.47;102708.38;6312128;28;20242;-74
2021/01/03 05:06:15;;;;;;;1.40;1.40;;;;;;;1.93;81.55;102702.72;6312606;28;20190;-76
2021/01/03 05:09:20;;;;;;;1.90;1.80;;;;;;;1.74;81.35;102683.56;6307997;28;20313;-75
2021/01/03 05:12:26;;;;;;;1.40;1.40;;;;;;;1.80;79.93;102713.56;6313452;28;20649;-76
2021/01/03 05:15:32;;;;;;;1.20;1.20;;;;;;;1.82;80.40;102703.53;6312046;28;20195;-76
2021/01/03 05:18:36;;;;;;;1.50;1.50;;;;;;;1.79;80.26;102713.69;6311517;28;20189;-76
2021/01/03 05:21:49;;;;;;;1.50;1.50;;;;;;;1.75;79.87;102720.25;6312048;28;20211;-76
2021/01/03 05:24:52;;;;;;;1.60;1.60;;;;;;;1.79;80.56;102721.75;6282150;28;20572;-76
2021/01/03 05:28:04;;;;;;;1.60;1.60;;;;;;;1.94;79.65;102720.63;6322591;28;20242;-76
2021/01/03 05:31:14;;;;;;;1.60;1.60;;;;;;;1.98;79.34;102735.53;6317990;28;20646;-76
2021/01/03 05:34:31;;;;;;;1.50;1.50;;;;;;;1.96;80.15;102721.34;6313621;28;20199;-74
2021/01/03 05:37:41;;;;;;;1.67;1.67;;;;;;;1.86;79.82;102731.09;6307424;28;20195;-74
2021/01/03 05:40:45;;;;;;;1.70;1.70;;;;;;;1.99;79.72;102721.13;6311709;28;20231;-75
2021/01/03 05:43:55;;;;;;;1.60;1.60;;;;;;;1.87;80.32;102738.22;6317775;28;20269;-77
2021/01/03 05:47:06;;;;;;;1.90;1.90;;;;;;;1.97;80.46;102733.84;6316386;28;20216;-74
2021/01/03 05:50:26;;;;;;;1.80;1.80;;;;;;;1.84;80.31;102738.44;6316495;28;20675;-74
2021/01/03 05:53:30;;;;;;;1.70;1.70;;;;;;;1.85;80.63;102734.75;6315516;28;20191;-76
2021/01/03 05:56:35;;;;;;;1.80;1.80;;;;;;;1.90;80.19;102732.56;6324155;28;20205;-76
2021/01/03 05:59:40;;;;;;;1.53;1.53;;;;;;;1.73;80.84;102741.06;6316192;28;20288;-74
2021/01/03 06:02:44;;;;;;;2.00;2.00;;;;;;;1.80;81.06;102753.06;6320981;28;20315;-76
2021/01/03 06:05:52;;;;;;;1.60;1.60;;;;;;;1.77;79.70;102721.88;6317227;28;20805;-75
2021/01/03 06:08:59;;;;;;;2.03;1.90;;;;;;;2.01;80.38;102748.78;6311617;28;20195;-75
2021/01/03 06:12:08;;;;;;;1.60;1.60;;;;;;;1.91;80.49;102728.91;6317789;28;20220;-75
2021/01/03 06:15:13;;;;;;;1.50;1.50;;;;;;;1.45;79.35;102719.84;6322092;28;20594;-75
2021/01/03 06:18:34;;;;;;;1.50;1.50;;;;;;;1.80;78.89;102753.94;6318426;28;20580;-75
2021/01/03 06:21:41;;;;;;;1.70;1.70;;;;;;;1.68;79.31;102765.63;6320635;28;20202;-75
2021/01/03 06:24:47;;;;;;;1.80;1.70;;;;;;;1.73;79.89;102762.56;6318540;28;20196;-75
2021/01/03 06:27:50;;;;;;;1.70;1.70;;;;;;;1.59;80.48;102777.03;6312496;28;20226;-75
2021/01/03 06:31:05;;;;;;;1.60;1.60;;;;;;;1.63;79.52;102796.53;6312293;28;20496;-75
2021/01/03 06:34:22;;;;;;;1.73;1.73;;;;;;;1.77;79.23;102780.25;6314056;28;20210;-75
2021/01/03 06:37:35;;;;;;;1.53;1.43;;;;;;;1.62;79.34;102802.84;6324755;28;20198;-75
2021/01/03 06:40:45;;;;;;;2.63;1.40;;;;;;;1.40;79.98;102797.31;6310475;28;20195;-75
2021/01/03 06:44:15;;;;;;;1.57;1.57;;;;;;;1.40;79.46;102791.94;6315355;28;20364;-75
2021/01/03 06:48:06;;;;;;;1.60;1.60;;;;;;;1.39;80.38;102792.94;6302547;28;20823;-75
2021/01/03 06:51:55;;;;;;;1.60;1.60;;;;;;;1.42;80.07;102800.75;6310037;28;20219;-75
2021/01/03 06:55:25;;;;;;;1.60;1.60;;;;;;;1.39;80.00;102801.00;6271372;28;20233;-75
2021/01/03 06:58:59;;;;;;;1.53;1.53;;;;;;;1.53;80.85;102803.53;6314178;28;20199;-75
2021/01/03 07:02:03;;;;;;;2.00;2.00;;;;;;;1.54;80.21;102811.50;6309117;28;20203;-75
2021/01/03 07:05:10;;;;;;;1.60;1.60;;;;;;;1.46;80.03;102770.00;6311769;28;20277;-75
2021/01/03 07:08:22;;;;;;;1.67;1.67;;;;;;;1.63;80.41;102793.84;6313973;28;20711;-75
2021/01/03 07:11:42;;;;;;;1.60;1.60;;;;;;;1.57;80.03;102799.66;6312323;28;20243;-75
2021/01/03 07:14:55;;;;;;;1.67;1.67;;;;;;;1.62;79.45;102803.72;6315856;28;20205;-75
2021/01/03 07:18:09;;;;;;;1.70;1.70;;;;;;;1.67;79.58;102809.63;6310828;28;20857;-75
2021/01/03 07:21:36;;;;;;;1.80;1.70;;;;;;;1.56;79.55;102814.09;6307291;28;20282;-75
2021/01/03 07:25:07;;;;;;;1.93;1.83;;;;;;;1.33;79.72;102774.53;6319366;28;20236;-75
2021/01/03 07:28:23;;;;;;;2.53;2.43;;;;;;;1.55;80.29;102825.81;6285859;28;20286;-75
2021/01/03 07:31:38;;;;;;;1.63;1.63;;;;;;;1.65;79.39;102826.88;6289861;28;20187;-75
2021/01/03 07:34:48;;;;;;;1.93;1.93;;;;;;;1.62;79.52;102816.31;6289439;28;20231;-75
2021/01/03 07:38:21;;;;;;;1.80;1.80;;;;;;;1.60;79.96;102829.91;6287011;28;20196;-75
2021/01/03 07:41:27;;;;;;;2.00;2.00;;;;;;;1.65;79.81;102827.72;6305713;28;20199;-75
2021/01/03 07:44:32;;;;;;;1.87;1.87;;;;;;;1.63;79.75;102831.50;6290895;28;20211;-75
2021/01/03 07:47:41;;;;;;;1.90;1.90;;;;;;;1.55;80.38;102841.94;6290228;28;20188;-75
2021/01/03 07:50:44;;;;;;;2.00;2.00;;;;;;;1.52;81.16;102831.41;6288554;28;20593;-75
2021/01/03 07:53:50;;;;;;;2.00;1.90;;;;;;;1.31;81.23;102836.50;6289009;28;20210;-75
2021/01/03 07:56:53;;;;;;;1.80;1.80;;;;;;;1.31;81.15;102825.72;6287859;28;20200;-75
2021/01/03 08:00:00;;;;;;;6.90;2.30;;;;;;;1.51;80.61;102840.47;6283789;28;20697;-75
2021/01/03 08:03:07;;;;;;;1.90;1.90;;;;;;;1.22;80.90;102832.66;6289754;28;20228;-75
2021/01/03 08:06:13;;;;;;;2.03;2.03;;;;;;;1.44;81.26;102826.56;6280915;28;20183;-75
2021/01/03 08:09:26;;;;;;;1.90;1.90;;;;;;;1.21;80.50;102857.81;6287243;28;20245;-75
2021/01/03 08:12:34;;;;;;;2.20;2.10;;;;;;;1.42;80.75;102843.81;6287415;28;20553;-75
2021/01/03 08:15:38;;;;;;;1.90;1.90;;;;;;;1.43;80.23;102854.47;6290462;28;20674;-75
2021/01/03 08:18:54;;;;;;;2.30;2.20;;;;;;;1.57;80.21;102848.06;6287984;28;20559;-75
2021/01/03 08:21:59;;;;;;;2.40;2.30;;;;;;;1.59;80.37;102846.16;6285173;28;20210;-76
2021/01/03 08:25:05;;;;;;;2.13;2.13;;;;;;;1.46;80.06;102839.94;6290228;28;20544;-74
2021/01/03 08:28:27;;;;;;;2.10;2.10;;;;;;;1.65;80.21;102861.84;6311520;28;20289;-76
2021/01/03 08:31:31;;;;;;;2.50;2.20;;;;;;;1.45;80.90;102865.09;6312297;28;20596;-77
2021/01/03 08:34:38;;;;;;;2.53;2.10;;;;;;;1.50;81.03;102862.94;6313278;28;20276;-73
2021/01/03 08:37:45;;;;;;;2.00;2.00;;;;;;;1.51;81.49;102864.69;6312100;28;20202;-75
2021/01/03 08:40:48;;;;;;;2.40;2.30;;;;;;;1.58;81.02;102863.25;6307113;28;20199;-76
2021/01/03 08:43:52;;;;;;;2.40;2.40;;;;;;;1.35;81.63;102850.59;6314032;28;20206;-76
2021/01/03 08:47:08;;;;;;;2.27;2.27;;;;;;;1.44;81.82;102860.72;6320986;28;20259;-76
2021/01/03 08:50:20;;;;;;;2.13;2.13;;;;;;;1.42;81.67;102871.56;6313655;28;20222;-75
2021/01/03 08:53:25;;;;;;;2.10;2.00;;;;;;;1.58;82.08;102865.97;6304596;28;20217;-76
2021/01/03 08:56:31;;;;;;;2.50;2.40;;;;;;;1.61;82.70;102872.00;6307637;28;20539;-75
2021/01/03 08:59:35;;;;;;;3.70;2.47;;;;;;;1.68;82.55;102873.25;6311900;28;20294;-75
2021/01/03 09:02:43;;;;;;;2.03;2.03;;;;;;;1.84;82.46;102878.41;6309743;28;20222;-76
2021/01/03 09:05:49;;;;;;;2.00;2.00;;;;;;;1.65;82.30;102873.47;6312246;28;20372;-75
2021/01/03 09:08:53;;;;;;;2.50;2.40;;;;;;;1.45;82.42;102857.03;6303153;28;20206;-76
2021/01/03 09:11:59;;;;;;;2.43;2.33;;;;;;;1.60;82.55;102890.91;6311068;28;20275;-76
2021/01/03 09:15:09;;;;;;;2.37;2.30;;;;;;;1.54;82.95;102894.06;6311860;28;20191;-76
2021/01/03 09:18:28;;;;;;;2.50;2.50;;;;;;;1.50;82.57;102906.00;6314456;28;20316;-76
2021/01/03 09:21:32;;;;;;;2.73;2.53;;;;;;;1.41;82.32;102901.28;6313596;28;20218;-76
2021/01/03 09:24:37;;;;;;;2.60;2.50;;;;;;;1.46;82.94;102904.50;6305478;28;20219;-75
2021/01/03 09:27:42;;;;;;;2.40;2.40;;;;;;;1.57;82.70;102908.13;6306656;28;20226;-76
2021/01/03 09:30:45;;;;;;;2.17;2.07;;;;;;;1.65;82.27;102910.28;6316447;28;20285;-76
2021/01/03 09:33:52;;;;;;;2.30;2.30;;;;;;;1.65;82.28;102926.44;6314735;28;20381;-75
2021/01/03 09:37:05;;;;;;;2.50;2.30;;;;;;;1.62;81.76;102916.75;6314455;28;20276;-77
2021/01/03 09:40:30;;;;;;;2.40;2.17;;;;;;;1.53;82.01;102919.22;6312538;28;20204;-76
2021/01/03 09:43:50;;;;;;;2.30;2.30;;;;;;;1.47;82.23;102922.34;6313037;28;20215;-76
2021/01/03 09:47:00;;;;;;;2.30;2.20;;;;;;;1.63;82.45;102918.47;6315391;28;20211;-76
2021/01/03 09:50:17;;;;;;;2.20;2.13;;;;;;;1.39;82.77;102932.81;6311325;28;20312;-75
2021/01/03 09:53:30;;;;;;;2.10;2.10;;;;;;;1.47;83.08;102938.47;6314528;28;20196;-74
2021/01/03 09:56:35;;;;;;;1.77;1.77;;;;;;;1.40;82.49;102927.31;6304406;28;20456;-76
2021/01/03 09:59:39;;;;;;;2.00;2.00;;;;;;;1.46;82.70;102934.09;6303651;28;20203;-77
2021/01/03 10:02:42;;;;;;;1.90;1.90;;;;;;;1.44;83.05;102917.22;6309861;28;20281;-75
2021/01/03 10:05:47;;;;;;;2.10;2.10;;;;;;;1.50;82.24;102895.22;6304347;28;20642;-74
2021/01/03 10:09:07;;;;;;;2.80;2.70;;;;;;;1.68;82.27;102943.22;6306240;28;20203;-75
2021/01/03 10:12:20;;;;;;;2.43;2.33;;;;;;;1.65;82.17;102938.06;6318355;28;20236;-76
2021/01/03 10:15:27;;;;;;;2.00;2.00;;;;;;;1.60;82.54;102940.22;6304462;28;20209;-76
2021/01/03 10:18:33;;;;;;;2.67;2.57;;;;;;;1.76;82.10;102938.16;6299660;28;20207;-76
2021/01/03 10:21:40;;;;;;;2.17;2.17;;;;;;;1.55;82.44;102941.50;6304542;28;20187;-76
2021/01/03 10:24:54;;;;;;;3.40;3.30;;;;;;;1.49;82.71;102925.81;6304305;28;20220;-75
2021/01/03 10:28:05;;;;;;;8.07;7.23;;;;;;;1.72;82.04;102938.50;6310487;28;20311;-77
2021/01/03 10:31:09;;;;;;;3.00;2.80;;;;;;;1.80;81.85;102919.94;6310524;28;20189;-76
2021/01/03 10:34:14;;;;;;;6.87;4.90;;;;;;;1.73;82.83;102933.00;6309552;28;20210;-76
2021/01/03 10:37:19;;;;;;;4.47;4.17;;;;;;;1.89;81.65;102919.31;6299708;28;20262;-76
2021/01/03 10:40:23;;;;;;;2.20;2.20;;;;;;;1.83;82.13;102930.50;6293398;28;20229;-75
2021/01/03 10:43:34;;;;;;;2.30;2.20;;;;;;;1.84;81.93;102922.34;6310306;28;20311;-78
2021/01/03 10:46:38;;;;;;;2.37;2.33;;;;;;;1.85;82.18;102928.56;6308818;28;20210;-75
2021/01/03 10:49:42;;;;;;;2.50;2.30;;;;;;;1.62;82.31;102910.50;6309976;28;20247;-76
2021/01/03 10:52:46;;;;;;;2.50;2.40;;;;;;;1.63;82.14;102913.09;6315256;28;20200;-74
2021/01/03 10:55:50;;;;;;;1.90;1.80;;;;;;;1.81;81.89;102927.06;6313231;28;20205;-76
2021/01/03 10:58:54;;;;;;;2.03;2.03;;;;;;;1.82;82.06;102913.47;6319099;28;20204;-77
2021/01/03 11:01:57;;;;;;;2.00;2.00;;;;;;;1.79;82.08;102918.25;6313110;28;20521;-76
2021/01/03 11:05:01;;;;;;;2.40;2.40;;;;;;;1.83;81.54;102926.00;6312108;28;20212;-75
2021/01/03 11:08:06;;;;;;;2.00;1.90;;;;;;;1.89;81.76;102932.75;6312955;28;20192;-75
2021/01/03 11:11:11;;;;;;;3.13;2.63;;;;;;;1.73;82.65;102930.31;6302763;28;20557;-76
2021/01/03 11:14:15;;;;;;;3.63;3.33;;;;;;;1.66;81.63;102885.09;6314168;28;20750;-77
2021/01/03 11:17:19;;;;;;;1.93;1.93;;;;;;;1.83;82.04;102927.81;6315165;28;20207;-76
2021/01/03 11:20:22;;;;;;;2.30;2.20;;;;;;;1.85;81.74;102931.25;6310095;28;20205;-76
2021/01/03 11:23:32;;;;;;;2.77;2.67;;;;;;;1.79;81.81;102929.00;6315452;28;20411;-76
2021/01/03 11:26:38;;;;;;;2.20;2.20;;;;;;;1.79;84.21;102939.78;6305632;28;20611;-75
2021/01/03 11:29:42;;;;;;;3.07;2.97;;;;;;;1.79;84.82;102934.41;6305787;28;20210;-76
2021/01/03 11:32:45;;;;;;;3.07;2.97;;;;;;;1.84;84.14;102937.63;6299364;28;20223;-76
2021/01/03 11:35:48;;;;;;;3.00;2.80;;;;;;;1.89;84.31;102941.72;6312665;28;20240;-76
2021/01/03 11:38:53;;;;;;;2.57;2.37;;;;;;;1.82;84.24;102934.19;6309657;28;20200;-76
2021/01/03 11:41:59;;;;;;;3.13;3.13;;;;;;;1.71;85.02;102936.78;6305944;28;20199;-76
2021/01/03 11:45:06;;;;;;;3.70;3.50;;;;;;;1.67;84.01;102936.13;6305124;28;20207;-75
2021/01/03 11:48:17;;;;;;;2.93;2.83;;;;;;;1.81;83.48;102937.84;6311070;28;20193;-76
2021/01/03 11:51:20;;;;;;;1.90;1.90;;;;;;;1.75;83.66;102943.66;6309922;28;20233;-76
2021/01/03 11:54:25;;;;;;;2.00;1.80;;;;;;;1.72;83.24;102943.88;6295959;28;20203;-76
2021/01/03 11:57:28;;;;;;;2.20;2.10;;;;;;;1.44;83.81;102927.97;6302596;28;20209;-75
2021/01/03 12:00:33;;;;;;;1.97;1.97;;;;;;;1.81;82.17;102937.84;6309004;28;20330;-76
2021/01/03 12:03:46;;;;;;;1.60;1.50;;;;;;;1.57;82.08;102935.03;6308089;28;20273;-76
2021/01/03 12:06:54;;;;;;;1.70;1.70;;;;;;;1.45;82.01;102935.91;6324786;28;20481;-76
2021/01/03 12:09:58;;;;;;;2.10;2.10;;;;;;;1.41;80.59;102933.56;6304932;28;20292;-74
2021/01/03 12:13:02;;;;;;;1.80;1.80;;;;;;;1.42;81.45;102946.03;6312762;28;20192;-75
2021/01/03 12:16:06;;;;;;;1.37;1.37;;;;;;;1.49;81.17;102952.72;6304845;28;20234;-75
2021/01/03 12:19:10;;;;;;;1.70;1.70;;;;;;;1.58;77.98;102947.53;6312834;28;20199;-74
2021/01/03 12:22:13;;;;;;;1.47;1.47;;;;;;;1.44;76.72;102954.88;6312735;28;20198;-75
2021/01/03 12:25:18;;;;;;;2.30;2.17;;;;;;;1.49;74.88;102948.16;6310860;28;20244;-77
2021/01/03 12:28:23;;;;;;;1.40;1.40;;;;;;;1.52;74.62;102949.78;6309893;28;20235;-75
2021/01/03 12:31:33;;;;;;;1.40;1.40;;;;;;;1.57;74.85;102961.09;6304498;28;20205;-76
2021/01/03 12:34:37;;;;;;;1.20;1.20;;;;;;;1.52;74.11;102957.84;6299138;28;20213;-76
2021/01/03 12:37:41;;;;;;;1.03;1.03;;;;;;;1.46;73.55;102953.78;6301958;28;20323;-76
2021/01/03 12:40:50;;;;;;;1.17;1.17;;;;;;;1.39;74.04;102967.78;6305036;28;20190;-76
2021/01/03 12:43:53;;;;;;;1.20;1.20;;;;;;;1.36;73.78;102967.97;6304592;28;20416;-76
2021/01/03 12:46:59;;;;;;;1.50;1.27;;;;;;;1.35;73.58;102971.63;6313837;28;20192;-76
2021/01/03 12:50:04;;;;;;;1.20;1.20;;;;;;;1.39;72.87;102962.41;6305900;28;20307;-76
2021/01/03 12:53:16;;;;;;;0.90;0.90;;;;;;;1.16;72.83;102970.19;6310539;28;20332;-75
2021/01/03 12:56:22;;;;;;;2.13;2.13;;;;;;;1.17;73.00;102973.75;6308714;28;20284;-75
2021/01/03 12:59:27;;;;;;;4.93;1.50;;;;;;;1.07;72.53;102961.91;6309375;28;20211;-75
2021/01/03 13:02:31;;;;;;;1.00;1.00;;;;;;;1.00;73.59;102977.56;6311117;28;20198;-75
2021/01/03 13:05:35;;;;;;;0.90;0.90;;;;;;;1.04;73.62;102973.72;6305591;28;20302;-75
2021/01/03 13:08:40;;;;;;;1.00;1.00;;;;;;;0.93;73.97;102981.66;6312238;28;20199;-75
2021/01/03 13:11:44;;;;;;;0.80;0.80;;;;;;;0.86;74.17;102991.09;6329179;28;20269;-75
2021/01/03 13:14:48;;;;;;;1.00;1.00;;;;;;;0.83;73.97;102991.28;6312291;28;21630;-75
2021/01/03 13:17:51;;;;;;;0.93;0.93;;;;;;;0.82;75.45;102992.28;6311995;28;20211;-74
2021/01/03 13:20:54;;;;;;;0.93;0.93;;;;;;;0.93;75.27;102992.41;6306582;28;20205;-75
2021/01/03 13:23:57;;;;;;;1.30;1.30;;;;;;;0.94;76.26;102988.75;6313694;28;20503;-76
2021/01/03 13:27:01;;;;;;;1.20;1.20;;;;;;;1.08;76.54;102994.06;6302926;28;20256;-75
2021/01/03 13:30:08;;;;;;;1.10;1.10;;;;;;;1.03;77.50;102988.13;6283471;28;20205;-75
2021/01/03 13:33:19;;;;;;;1.90;1.50;;;;;;;0.92;79.58;102995.19;6274686;28;20287;-75
2021/01/03 13:36:27;;;;;;;1.47;1.43;;;;;;;0.90;80.71;103003.34;6284191;28;20206;-76
2021/01/03 13:39:30;;;;;;;1.63;1.63;;;;;;;0.88;80.88;103005.28;6287042;28;20227;-76
2021/01/03 13:42:34;;;;;;;1.00;1.00;;;;;;;0.69;77.30;103007.47;6282863;28;20205;-76
2021/01/03 13:45:38;;;;;;;1.37;1.37;;;;;;;0.81;77.79;102998.59;6287760;28;20211;-76
2021/01/03 13:48:43;;;;;;;1.43;1.43;;;;;;;0.76;76.47;102989.97;6292404;28;20280;-76
2021/01/03 13:51:47;;;;;;;2.63;2.03;;;;;;;0.83;76.32;103007.41;6283475;28;20669;-75
2021/01/03 13:54:51;;;;;;;1.20;1.20;;;;;;;0.83;76.73;103012.78;6290189;28;20282;-75
2021/01/03 13:57:55;;;;;;;1.30;1.30;;;;;;;0.66;77.89;103014.88;6289831;28;20673;-74
2021/01/03 14:01:00;;;;;;;1.73;1.70;;;;;;;0.61;78.50;102980.25;6274945;28;20344;-74
2021/01/03 14:04:09;;;;;;;1.20;1.20;;;;;;;0.76;77.92;103015.97;6287397;28;20226;-75
2021/01/03 14:07:13;;;;;;;1.10;1.10;;;;;;;0.61;77.92;102997.25;6297782;28;20689;-77
2021/01/03 14:10:19;;;;;;;1.20;1.20;;;;;;;0.62;78.49;102996.25;6296491;28;20205;-75
2021/01/03 14:13:25;;;;;;;0.93;0.93;;;;;;;0.97;76.96;103014.56;6288708;28;20600;-75
2021/01/03 14:16:30;;;;;;;1.00;1.00;;;;;;;0.49;75.32;102976.53;6293932;28;20210;-77
2021/01/03 14:19:33;;;;;;;1.23;1.23;;;;;;;0.56;74.08;102998.50;6315384;28;20208;-77
2021/01/03 14:22:38;;;;;;;1.30;1.30;;;;;;;0.57;74.96;103002.88;6296048;28;20202;-76
2021/01/03 14:25:41;;;;;;;1.73;1.73;;;;;;;0.67;73.63;103008.53;6294576;28;20234;-75
2021/01/03 14:28:46;;;;;;;1.43;1.43;;;;;;;0.68;74.15;103019.19;6279115;28;20195;-76
2021/01/03 14:31:51;;;;;;;1.07;1.07;;;;;;;0.41;75.39;102972.63;6289363;28;20202;-76
2021/01/03 14:34:57;;;;;;;1.30;1.07;;;;;;;0.54;74.97;102984.28;6279710;28;20199;-75
2021/01/03 14:38:03;;;;;;;1.27;1.17;;;;;;;0.66;76.51;103015.72;6278575;28;20203;-75
2021/01/03 14:41:13;;;;;;;0.90;0.90;;;;;;;0.74;76.07;103028.66;6284165;28;20213;-75
2021/01/03 14:44:27;;;;;;;1.30;1.30;;;;;;;0.68;76.58;103024.53;6287585;28;20204;-76